sensor_id;sensor_type;location;lat;lon;timestamp;pressure;altitude;pressure_sealevel;temperature;humidity
7018;BME280;3549;42.162;24.726;2023-02-01T00:01:32;47826.63;;;-141.97;65.15
7018;BME280;3549;42.162;24.726;2023-02-01T00:03:58;47865.06;;;-141.97;64.20
7018;BME280;3549;42.162;24.726;2023-02-01T00:06:23;47828.53;;;-141.97;63.81
7018;BME280;3549;42.162;24.726;2023-02-01T00:08:52;47818.94;;;-141.97;64.01
7018;BME280;3549;42.162;24.726;2023-02-01T00:11:18;47868.91;;;-141.97;64.10
7018;BME280;3549;42.162;24.726;2023-02-01T00:13:44;47847.75;;;-141.97;64.36
7018;BME280;3549;42.162;24.726;2023-02-01T00:16:10;47822.78;;;-141.97;64.05
7018;BME280;3549;42.162;24.726;2023-02-01T00:18:37;47763.19;;;-141.97;64.00
7018;BME280;3549;42.162;24.726;2023-02-01T00:21:03;47742.03;;;-141.97;64.02
7018;BME280;3549;42.162;24.726;2023-02-01T00:23:33;47901.59;;;-141.97;63.85
7018;BME280;3549;42.162;24.726;2023-02-01T00:26:05;47718.97;;;-141.97;64.33
7018;BME280;3549;42.162;24.726;2023-02-01T00:28:31;47880.44;;;-141.97;64.40
7018;BME280;3549;42.162;24.726;2023-02-01T00:31:01;47843.91;;;-141.97;65.18
7018;BME280;3549;42.162;24.726;2023-02-01T00:33:28;47811.25;;;-141.97;64.81
7018;BME280;3549;42.162;24.726;2023-02-01T00:36:01;47824.69;;;-141.97;65.12
7018;BME280;3549;42.162;24.726;2023-02-01T00:38:28;47838.16;;;-141.97;65.04
7018;BME280;3549;42.162;24.726;2023-02-01T00:40:54;47897.75;;;-141.97;65.04
7018;BME280;3549;42.162;24.726;2023-02-01T00:43:19;47818.94;;;-141.97;64.90
7018;BME280;3549;42.162;24.726;2023-02-01T00:45:46;47776.63;;;-141.97;64.88
7018;BME280;3549;42.162;24.726;2023-02-01T00:48:12;47818.94;;;-141.97;65.48
7018;BME280;3549;42.162;24.726;2023-02-01T00:50:44;47818.94;;;-141.97;65.75
7018;BME280;3549;42.162;24.726;2023-02-01T00:53:10;47807.41;;;-141.97;65.51
7018;BME280;3549;42.162;24.726;2023-02-01T00:55:36;47842.00;;;-141.97;65.40
7018;BME280;3549;42.162;24.726;2023-02-01T00:58:01;47726.66;;;-141.97;65.30
7018;BME280;3549;42.162;24.726;2023-02-01T01:00:26;47836.22;;;-141.97;65.41
7018;BME280;3549;42.162;24.726;2023-02-01T01:02:52;47807.41;;;-141.97;66.25
7018;BME280;3549;42.162;24.726;2023-02-01T01:05:18;47761.25;;;-141.97;66.49
7018;BME280;3549;42.162;24.726;2023-02-01T01:07:44;47853.53;;;-141.97;67.15
7018;BME280;3549;42.162;24.726;2023-02-01T01:10:09;47817.00;;;-141.97;67.81
7018;BME280;3549;42.162;24.726;2023-02-01T01:12:35;47845.84;;;-141.97;67.64
7018;BME280;3549;42.162;24.726;2023-02-01T01:15:00;47718.97;;;-141.97;67.99
7018;BME280;3549;42.162;24.726;2023-02-01T01:17:26;47853.53;;;-141.97;68.08
7018;BME280;3549;42.162;24.726;2023-02-01T01:19:51;47772.78;;;-141.97;68.30
7018;BME280;3549;42.162;24.726;2023-02-01T01:22:16;47820.84;;;-141.97;68.28
7018;BME280;3549;42.162;24.726;2023-02-01T01:24:43;47815.09;;;-141.97;68.30
7018;BME280;3549;42.162;24.726;2023-02-01T01:27:08;47849.69;;;-141.97;68.91
7018;BME280;3549;42.162;24.726;2023-02-01T01:29:34;47830.47;;;-141.97;68.94
7018;BME280;3549;42.162;24.726;2023-02-01T01:31:59;47818.94;;;-141.97;69.04
7018;BME280;3549;42.162;24.726;2023-02-01T01:34:24;47780.47;;;-141.97;68.94
7018;BME280;3549;42.162;24.726;2023-02-01T01:36:50;47742.03;;;-141.97;69.19
7018;BME280;3549;42.162;24.726;2023-02-01T01:39:15;47807.41;;;-141.97;68.95
7018;BME280;3549;42.162;24.726;2023-02-01T01:41:40;47830.47;;;-141.97;68.48
7018;BME280;3549;42.162;24.726;2023-02-01T01:44:53;47788.19;;;-141.97;69.09
7018;BME280;3549;42.162;24.726;2023-02-01T01:46:52;47793.94;;;-141.97;69.17
7018;BME280;3549;42.162;24.726;2023-02-01T01:49:21;47820.84;;;-141.97;69.56
7018;BME280;3549;42.162;24.726;2023-02-01T01:51:55;47822.78;;;-141.97;69.58
7018;BME280;3549;42.162;24.726;2023-02-01T01:54:33;47863.13;;;-141.97;69.70
7018;BME280;3549;42.162;24.726;2023-02-01T01:57:03;47801.63;;;-141.97;70.50
7018;BME280;3549;42.162;24.726;2023-02-01T01:59:31;47820.84;;;-141.97;70.52
7018;BME280;3549;42.162;24.726;2023-02-01T02:01:57;47751.66;;;-141.97;70.82
7018;BME280;3549;42.162;24.726;2023-02-01T02:04:23;47865.06;;;-141.97;71.22
7018;BME280;3549;42.162;24.726;2023-02-01T02:07:03;47830.47;;;-141.97;70.66
7018;BME280;3549;42.162;24.726;2023-02-01T02:09:29;47811.25;;;-141.97;70.89
7018;BME280;3549;42.162;24.726;2023-02-01T02:11:55;47730.50;;;-141.97;70.36
7018;BME280;3549;42.162;24.726;2023-02-01T02:14:23;47707.44;;;-141.97;70.08
7018;BME280;3549;42.162;24.726;2023-02-01T02:16:59;47828.53;;;-141.97;70.21
7018;BME280;3549;42.162;24.726;2023-02-01T02:19:54;47830.47;;;-141.97;69.66
7018;BME280;3549;42.162;24.726;2023-02-01T02:22:55;47788.19;;;-141.97;70.30
7018;BME280;3549;42.162;24.726;2023-02-01T02:33:47;47811.25;;;-141.97;69.80
7018;BME280;3549;42.162;24.726;2023-02-01T02:39:06;47840.06;;;-141.97;69.75
7018;BME280;3549;42.162;24.726;2023-02-01T02:41:48;47842.00;;;-141.97;69.61
7018;BME280;3549;42.162;24.726;2023-02-01T02:44:54;47836.22;;;-141.97;70.20
7018;BME280;3549;42.162;24.726;2023-02-01T02:48:00;47813.16;;;-141.97;70.01
7018;BME280;3549;42.162;24.726;2023-02-01T02:50:34;47826.63;;;-141.97;69.81
7018;BME280;3549;42.162;24.726;2023-02-01T02:56:13;47830.47;;;-141.97;69.40
7018;BME280;3549;42.162;24.726;2023-02-01T02:58:59;47815.09;;;-141.97;69.41
7018;BME280;3549;42.162;24.726;2023-02-01T03:01:43;47788.19;;;-141.97;69.31
7018;BME280;3549;42.162;24.726;2023-02-01T03:04:27;47838.16;;;-141.97;68.65
7018;BME280;3549;42.162;24.726;2023-02-01T03:06:53;47838.16;;;-141.97;68.45
7018;BME280;3549;42.162;24.726;2023-02-01T03:09:31;47849.69;;;-141.97;68.36
7018;BME280;3549;42.162;24.726;2023-02-01T03:12:05;47805.47;;;-141.97;69.44
7018;BME280;3549;42.162;24.726;2023-02-01T03:14:56;47797.78;;;-141.97;69.70
7018;BME280;3549;42.162;24.726;2023-02-01T03:17:29;47811.25;;;-141.97;69.98
7018;BME280;3549;42.162;24.726;2023-02-01T03:19:59;47840.06;;;-141.97;69.94
7018;BME280;3549;42.162;24.726;2023-02-01T03:22:28;47776.63;;;-141.97;69.86
7018;BME280;3549;42.162;24.726;2023-02-01T03:25:03;47888.13;;;-141.97;70.33
7018;BME280;3549;42.162;24.726;2023-02-01T03:27:33;47732.44;;;-141.97;69.86
7018;BME280;3549;42.162;24.726;2023-02-01T03:32:36;47861.22;;;-141.97;69.80
7018;BME280;3549;42.162;24.726;2023-02-01T03:38:43;47842.00;;;-141.97;70.85
7018;BME280;3549;42.162;24.726;2023-02-01T03:41:28;47795.88;;;-141.97;72.46
7018;BME280;3549;42.162;24.726;2023-02-01T03:44:01;47824.69;;;-141.97;72.78
7018;BME280;3549;42.162;24.726;2023-02-01T03:46:37;47803.56;;;-141.97;73.44
7018;BME280;3549;42.162;24.726;2023-02-01T03:49:09;47830.47;;;-141.97;73.91
7018;BME280;3549;42.162;24.726;2023-02-01T03:51:38;47803.56;;;-141.97;73.33
7018;BME280;3549;42.162;24.726;2023-02-01T03:54:07;47845.84;;;-141.97;72.93
7018;BME280;3549;42.162;24.726;2023-02-01T03:56:36;47907.34;;;-141.97;73.28
7018;BME280;3549;42.162;24.726;2023-02-01T03:59:03;47807.41;;;-141.97;73.56
7018;BME280;3549;42.162;24.726;2023-02-01T04:01:29;47715.13;;;-141.97;73.96
7018;BME280;3549;42.162;24.726;2023-02-01T04:03:56;47818.94;;;-141.97;73.59
7018;BME280;3549;42.162;24.726;2023-02-01T04:06:21;47836.22;;;-141.97;72.98
7018;BME280;3549;42.162;24.726;2023-02-01T04:08:47;47768.94;;;-141.97;72.57
7018;BME280;3549;42.162;24.726;2023-02-01T04:11:12;47711.28;;;-141.97;71.65
7018;BME280;3549;42.162;24.726;2023-02-01T04:13:38;47817.00;;;-141.97;70.87
7018;BME280;3549;42.162;24.726;2023-02-01T04:16:03;47730.50;;;-141.97;70.73
7018;BME280;3549;42.162;24.726;2023-02-01T04:18:29;47859.28;;;-141.97;70.76
7018;BME280;3549;42.162;24.726;2023-02-01T04:20:54;47807.41;;;-141.97;70.07
7018;BME280;3549;42.162;24.726;2023-02-01T04:23:19;47768.94;;;-141.97;68.62
7018;BME280;3549;42.162;24.726;2023-02-01T04:25:45;47845.84;;;-141.97;68.01
7018;BME280;3549;42.162;24.726;2023-02-01T04:28:11;47861.22;;;-141.97;67.71
7018;BME280;3549;42.162;24.726;2023-02-01T04:30:36;47751.66;;;-141.97;68.00
7018;BME280;3549;42.162;24.726;2023-02-01T04:33:02;47865.06;;;-141.97;68.15
7018;BME280;3549;42.162;24.726;2023-02-01T04:35:30;47832.38;;;-141.97;67.32
7018;BME280;3549;42.162;24.726;2023-02-01T04:37:55;47761.25;;;-141.97;67.80
7018;BME280;3549;42.162;24.726;2023-02-01T04:40:21;47840.06;;;-141.97;67.79
7018;BME280;3549;42.162;24.726;2023-02-01T04:42:46;47807.41;;;-141.97;67.66
7018;BME280;3549;42.162;24.726;2023-02-01T04:45:12;47857.38;;;-141.97;67.84
7018;BME280;3549;42.162;24.726;2023-02-01T04:47:38;47857.38;;;-141.97;67.67
7018;BME280;3549;42.162;24.726;2023-02-01T04:50:04;47715.13;;;-141.97;67.95
7018;BME280;3549;42.162;24.726;2023-02-01T04:52:31;47876.59;;;-141.97;68.56
7018;BME280;3549;42.162;24.726;2023-02-01T04:54:56;47828.53;;;-141.97;68.56
7018;BME280;3549;42.162;24.726;2023-02-01T04:57:24;47886.22;;;-141.97;68.54
7018;BME280;3549;42.162;24.726;2023-02-01T04:59:50;47836.22;;;-141.97;67.89
7018;BME280;3549;42.162;24.726;2023-02-01T05:02:15;47803.56;;;-141.97;66.83
7018;BME280;3549;42.162;24.726;2023-02-01T05:04:41;47770.88;;;-141.97;66.60
7018;BME280;3549;42.162;24.726;2023-02-01T05:07:06;47736.28;;;-141.97;66.13
7018;BME280;3549;42.162;24.726;2023-02-01T05:09:31;47815.09;;;-141.97;65.90
7018;BME280;3549;42.162;24.726;2023-02-01T05:11:57;47872.75;;;-141.97;65.08
7018;BME280;3549;42.162;24.726;2023-02-01T05:14:41;47786.25;;;-141.97;64.84
7018;BME280;3549;42.162;24.726;2023-02-01T05:17:06;47811.25;;;-141.97;64.28
7018;BME280;3549;42.162;24.726;2023-02-01T05:19:31;47788.19;;;-141.97;63.90
7018;BME280;3549;42.162;24.726;2023-02-01T05:21:57;47795.88;;;-141.97;64.09
7018;BME280;3549;42.162;24.726;2023-02-01T05:24:22;47809.31;;;-141.97;64.78
7018;BME280;3549;42.162;24.726;2023-02-01T05:26:48;47826.63;;;-141.97;64.95
7018;BME280;3549;42.162;24.726;2023-02-01T05:29:15;47815.09;;;-141.97;65.67
7018;BME280;3549;42.162;24.726;2023-02-01T05:31:40;47811.25;;;-141.97;65.94
7018;BME280;3549;42.162;24.726;2023-02-01T05:34:06;47849.69;;;-141.97;66.63
7018;BME280;3549;42.162;24.726;2023-02-01T05:36:32;47799.72;;;-141.97;66.49
7018;BME280;3549;42.162;24.726;2023-02-01T05:38:58;47861.22;;;-141.97;67.84
7018;BME280;3549;42.162;24.726;2023-02-01T05:41:24;47838.16;;;-141.97;67.97
7018;BME280;3549;42.162;24.726;2023-02-01T05:43:49;47830.47;;;-141.97;67.08
7018;BME280;3549;42.162;24.726;2023-02-01T05:46:15;47770.88;;;-141.97;66.48
7018;BME280;3549;42.162;24.726;2023-02-01T05:48:41;47886.22;;;-141.97;65.96
7018;BME280;3549;42.162;24.726;2023-02-01T05:51:08;47865.06;;;-141.97;64.77
7018;BME280;3549;42.162;24.726;2023-02-01T05:53:33;47793.94;;;-141.97;63.83
7018;BME280;3549;42.162;24.726;2023-02-01T05:55:59;47838.16;;;-141.97;63.45
7018;BME280;3549;42.162;24.726;2023-02-01T05:58:24;47820.84;;;-141.97;62.72
7018;BME280;3549;42.162;24.726;2023-02-01T06:00:50;47838.16;;;-141.97;62.26
7018;BME280;3549;42.162;24.726;2023-02-01T06:03:15;47815.09;;;-141.97;62.07
7018;BME280;3549;42.162;24.726;2023-02-01T06:05:43;47826.63;;;-141.97;61.94
7018;BME280;3549;42.162;24.726;2023-02-01T06:08:09;47809.31;;;-141.97;61.92
7018;BME280;3549;42.162;24.726;2023-02-01T06:10:35;47776.63;;;-141.97;61.30
7018;BME280;3549;42.162;24.726;2023-02-01T06:13:00;47788.19;;;-141.97;61.60
7018;BME280;3549;42.162;24.726;2023-02-01T06:15:25;47780.47;;;-141.97;61.31
7018;BME280;3549;42.162;24.726;2023-02-01T06:17:51;47865.06;;;-141.97;60.88
7018;BME280;3549;42.162;24.726;2023-02-01T06:20:16;47868.91;;;-141.97;60.12
7018;BME280;3549;42.162;24.726;2023-02-01T06:22:42;47824.69;;;-141.97;59.28
7018;BME280;3549;42.162;24.726;2023-02-01T06:25:09;47820.84;;;-141.97;58.40
7018;BME280;3549;42.162;24.726;2023-02-01T06:27:35;47811.25;;;-141.97;58.60
7018;BME280;3549;42.162;24.726;2023-02-01T06:30:01;47849.69;;;-141.97;58.48
7018;BME280;3549;42.162;24.726;2023-02-01T06:32:27;47809.31;;;-141.97;58.01
7018;BME280;3549;42.162;24.726;2023-02-01T06:34:52;47905.44;;;-141.97;57.81
7018;BME280;3549;42.162;24.726;2023-02-01T06:37:19;47711.28;;;-141.97;57.46
7018;BME280;3549;42.162;24.726;2023-02-01T06:39:44;47842.00;;;-141.97;57.78
7018;BME280;3549;42.162;24.726;2023-02-01T06:42:09;47799.72;;;-141.97;57.46
7018;BME280;3549;42.162;24.726;2023-02-01T06:44:35;47699.75;;;-141.97;57.64
7018;BME280;3549;42.162;24.726;2023-02-01T06:47:00;47795.88;;;-141.97;57.54
7018;BME280;3549;42.162;24.726;2023-02-01T06:49:26;47897.75;;;-141.97;57.60
7018;BME280;3549;42.162;24.726;2023-02-01T06:51:51;47730.50;;;-141.97;57.58
7018;BME280;3549;42.162;24.726;2023-02-01T06:54:17;47763.19;;;-141.97;57.60
7018;BME280;3549;42.162;24.726;2023-02-01T06:56:42;47770.88;;;-141.97;57.32
7018;BME280;3549;42.162;24.726;2023-02-01T06:59:08;47780.47;;;-141.97;56.91
7018;BME280;3549;42.162;24.726;2023-02-01T07:01:34;47849.69;;;-141.97;56.92
7018;BME280;3549;42.162;24.726;2023-02-01T07:03:59;47836.22;;;-141.97;57.03
7018;BME280;3549;42.162;24.726;2023-02-01T07:06:24;47711.28;;;-141.97;56.66
7018;BME280;3549;42.162;24.726;2023-02-01T07:08:50;47834.31;;;-141.97;56.56
7018;BME280;3549;42.162;24.726;2023-02-01T07:11:17;47832.38;;;-141.97;56.30
7018;BME280;3549;42.162;24.726;2023-02-01T07:13:43;47805.47;;;-141.97;57.08
7018;BME280;3549;42.162;24.726;2023-02-01T07:16:11;47797.78;;;-141.97;56.94
7018;BME280;3549;42.162;24.726;2023-02-01T07:18:38;47861.22;;;-141.97;56.94
7018;BME280;3549;42.162;24.726;2023-02-01T07:21:03;47828.53;;;-141.97;56.22
7018;BME280;3549;42.162;24.726;2023-02-01T07:23:29;47745.88;;;-141.97;56.21
7018;BME280;3549;42.162;24.726;2023-02-01T07:26:02;47809.31;;;-141.97;56.09
7018;BME280;3549;42.162;24.726;2023-02-01T07:28:29;47822.78;;;-141.97;56.13
7018;BME280;3549;42.162;24.726;2023-02-01T07:31:02;47822.78;;;-141.97;56.47
7018;BME280;3549;42.162;24.726;2023-02-01T07:33:28;47849.69;;;-141.97;55.36
7018;BME280;3549;42.162;24.726;2023-02-01T07:35:53;47797.78;;;-141.97;55.00
7018;BME280;3549;42.162;24.726;2023-02-01T07:38:18;47901.59;;;-141.97;55.16
7018;BME280;3549;42.162;24.726;2023-02-01T07:40:46;47865.06;;;-141.97;54.66
7018;BME280;3549;42.162;24.726;2023-02-01T07:43:12;47720.91;;;-141.97;54.03
7018;BME280;3549;42.162;24.726;2023-02-01T07:45:37;47868.91;;;-141.97;53.79
7018;BME280;3549;42.162;24.726;2023-02-01T07:48:03;47870.81;;;-141.97;53.41
7018;BME280;3549;42.162;24.726;2023-02-01T07:50:29;47792.03;;;-141.97;53.12
7018;BME280;3549;42.162;24.726;2023-02-01T07:52:55;47776.63;;;-141.97;53.12
7018;BME280;3549;42.162;24.726;2023-02-01T07:55:21;47911.19;;;-141.97;53.37
7018;BME280;3549;42.162;24.726;2023-02-01T07:57:46;47815.09;;;-141.97;53.82
7018;BME280;3549;42.162;24.726;2023-02-01T08:00:13;47780.47;;;-141.97;53.62
7018;BME280;3549;42.162;24.726;2023-02-01T08:02:58;47803.56;;;-141.97;53.77
7018;BME280;3549;42.162;24.726;2023-02-01T08:05:24;47778.56;;;-141.97;53.67
7018;BME280;3549;42.162;24.726;2023-02-01T08:07:50;47761.25;;;-141.97;53.83
7018;BME280;3549;42.162;24.726;2023-02-01T08:10:16;47853.53;;;-141.97;54.10
7018;BME280;3549;42.162;24.726;2023-02-01T08:12:42;47890.06;;;-141.97;53.84
7018;BME280;3549;42.162;24.726;2023-02-01T08:15:08;47780.47;;;-141.97;53.76
7018;BME280;3549;42.162;24.726;2023-02-01T08:17:33;47742.03;;;-141.97;53.97
7018;BME280;3549;42.162;24.726;2023-02-01T08:19:58;47767.03;;;-141.97;54.39
7018;BME280;3549;42.162;24.726;2023-02-01T08:22:24;47895.81;;;-141.97;53.86
7018;BME280;3549;42.162;24.726;2023-02-01T08:24:49;47859.28;;;-141.97;54.16
7018;BME280;3549;42.162;24.726;2023-02-01T08:27:15;47718.97;;;-141.97;54.05
7018;BME280;3549;42.162;24.726;2023-02-01T08:29:40;47790.09;;;-141.97;53.86
7018;BME280;3549;42.162;24.726;2023-02-01T08:32:05;47722.81;;;-141.97;53.85
7018;BME280;3549;42.162;24.726;2023-02-01T08:34:31;47872.75;;;-141.97;53.58
7018;BME280;3549;42.162;24.726;2023-02-01T08:36:56;47890.06;;;-141.97;53.67
7018;BME280;3549;42.162;24.726;2023-02-01T08:39:25;47884.28;;;-141.97;53.44
7018;BME280;3549;42.162;24.726;2023-02-01T08:41:51;47790.09;;;-141.97;54.02
7018;BME280;3549;42.162;24.726;2023-02-01T08:44:35;47797.78;;;-141.97;54.02
7018;BME280;3549;42.162;24.726;2023-02-01T08:47:02;47792.03;;;-141.97;53.93
7018;BME280;3549;42.162;24.726;2023-02-01T08:49:28;47772.78;;;-141.97;53.82
7018;BME280;3549;42.162;24.726;2023-02-01T08:51:53;47872.75;;;-141.97;54.03
7018;BME280;3549;42.162;24.726;2023-02-01T08:54:20;47845.84;;;-141.97;53.95
7018;BME280;3549;42.162;24.726;2023-02-01T08:56:46;47784.34;;;-141.97;53.99
7018;BME280;3549;42.162;24.726;2023-02-01T08:59:11;47774.72;;;-141.97;53.90
7018;BME280;3549;42.162;24.726;2023-02-01T09:01:36;47722.81;;;-141.97;54.23
7018;BME280;3549;42.162;24.726;2023-02-01T09:04:02;47795.88;;;-141.97;54.32
7018;BME280;3549;42.162;24.726;2023-02-01T09:06:27;47761.25;;;-141.97;53.27
7018;BME280;3549;42.162;24.726;2023-02-01T09:08:53;47828.53;;;-141.97;53.44
7018;BME280;3549;42.162;24.726;2023-02-01T09:11:18;47669.00;;;-141.97;53.59
7018;BME280;3549;42.162;24.726;2023-02-01T09:13:44;47747.81;;;-141.97;52.86
7018;BME280;3549;42.162;24.726;2023-02-01T09:16:10;47784.34;;;-141.97;52.35
7018;BME280;3549;42.162;24.726;2023-02-01T09:18:36;47749.72;;;-141.97;51.86
7018;BME280;3549;42.162;24.726;2023-02-01T09:21:06;47742.03;;;-141.97;50.81
7018;BME280;3549;42.162;24.726;2023-02-01T09:23:32;47822.78;;;-141.97;51.02
7018;BME280;3549;42.162;24.726;2023-02-01T09:26:04;47832.38;;;-141.97;50.21
7018;BME280;3549;42.162;24.726;2023-02-01T09:28:30;47753.56;;;-141.97;49.86
7018;BME280;3549;42.162;24.726;2023-02-01T09:30:57;47742.03;;;-141.97;49.85
7018;BME280;3549;42.162;24.726;2023-02-01T09:33:23;47876.59;;;-141.97;49.49
7018;BME280;3549;42.162;24.726;2023-02-01T09:36:03;47811.25;;;-141.97;49.31
7018;BME280;3549;42.162;24.726;2023-02-01T09:38:29;47830.47;;;-141.97;48.70
7018;BME280;3549;42.162;24.726;2023-02-01T09:40:56;47742.03;;;-141.97;49.19
7018;BME280;3549;42.162;24.726;2023-02-01T09:46:21;47803.56;;;-141.97;47.73
7018;BME280;3549;42.162;24.726;2023-02-01T09:48:49;47797.78;;;-141.97;47.72
7018;BME280;3549;42.162;24.726;2023-02-01T09:51:23;47792.03;;;-141.97;47.21
7018;BME280;3549;42.162;24.726;2023-02-01T09:54:04;47790.09;;;-141.97;47.08
7018;BME280;3549;42.162;24.726;2023-02-01T09:56:36;47809.31;;;-141.97;46.70
7018;BME280;3549;42.162;24.726;2023-02-01T09:59:23;47830.47;;;-141.97;47.72
7018;BME280;3549;42.162;24.726;2023-02-01T10:01:50;47788.19;;;-141.97;48.24
7018;BME280;3549;42.162;24.726;2023-02-01T10:04:17;47876.59;;;-141.97;47.04
7018;BME280;3549;42.162;24.726;2023-02-01T10:07:01;47730.50;;;-141.97;47.61
7018;BME280;3549;42.162;24.726;2023-02-01T10:09:52;47822.78;;;-141.97;48.50
7018;BME280;3549;42.162;24.726;2023-02-01T10:12:43;47801.63;;;-141.97;48.84
7018;BME280;3549;42.162;24.726;2023-02-01T10:18:03;47815.09;;;-141.97;49.71
7018;BME280;3549;42.162;24.726;2023-02-01T10:20:52;47780.47;;;-141.97;50.05
7018;BME280;3549;42.162;24.726;2023-02-01T10:24:16;47826.63;;;-141.97;49.86
7018;BME280;3549;42.162;24.726;2023-02-01T10:26:46;47728.59;;;-141.97;49.08
7018;BME280;3549;42.162;24.726;2023-02-01T10:29:20;47897.75;;;-141.97;48.84
7018;BME280;3549;42.162;24.726;2023-02-01T10:31:48;47759.34;;;-141.97;49.01
7018;BME280;3549;42.162;24.726;2023-02-01T10:34:19;47782.41;;;-141.97;48.42
7018;BME280;3549;42.162;24.726;2023-02-01T10:36:57;47811.25;;;-141.97;48.14
7018;BME280;3549;42.162;24.726;2023-02-01T10:39:25;47761.25;;;-141.97;48.17
7018;BME280;3549;42.162;24.726;2023-02-01T10:41:50;47884.28;;;-141.97;47.72
7018;BME280;3549;42.162;24.726;2023-02-01T10:44:19;47753.56;;;-141.97;47.33
7018;BME280;3549;42.162;24.726;2023-02-01T10:46:48;47709.38;;;-141.97;47.26
7018;BME280;3549;42.162;24.726;2023-02-01T10:49:26;47849.69;;;-141.97;46.66
7018;BME280;3549;42.162;24.726;2023-02-01T10:51:58;47803.56;;;-141.97;47.15
7018;BME280;3549;42.162;24.726;2023-02-01T10:54:33;47859.28;;;-141.97;46.65
7018;BME280;3549;42.162;24.726;2023-02-01T10:56:59;47826.63;;;-141.97;46.74
7018;BME280;3549;42.162;24.726;2023-02-01T10:59:28;47780.47;;;-141.97;46.50
7018;BME280;3549;42.162;24.726;2023-02-01T11:02:02;47711.28;;;-141.97;46.59
7018;BME280;3549;42.162;24.726;2023-02-01T11:04:30;47815.09;;;-141.97;46.24
7018;BME280;3549;42.162;24.726;2023-02-01T11:09:49;47761.25;;;-141.97;45.90
7018;BME280;3549;42.162;24.726;2023-02-01T11:12:32;47738.19;;;-141.97;45.42
7018;BME280;3549;42.162;24.726;2023-02-01T11:15:20;47811.25;;;-141.97;45.41
7018;BME280;3549;42.162;24.726;2023-02-01T11:17:51;47768.94;;;-141.97;45.17
7018;BME280;3549;42.162;24.726;2023-02-01T11:20:40;47776.63;;;-141.97;45.17
7018;BME280;3549;42.162;24.726;2023-02-01T11:23:14;47695.91;;;-141.97;45.64
7018;BME280;3549;42.162;24.726;2023-02-01T11:25:48;47686.31;;;-141.97;45.12
7018;BME280;3549;42.162;24.726;2023-02-01T11:28:14;47684.38;;;-141.97;45.38
7018;BME280;3549;42.162;24.726;2023-02-01T11:30:42;47653.63;;;-141.97;45.03
7018;BME280;3549;42.162;24.726;2023-02-01T11:33:15;47813.16;;;-141.97;45.46
7018;BME280;3549;42.162;24.726;2023-02-01T11:35:42;47742.03;;;-141.97;45.25
7018;BME280;3549;42.162;24.726;2023-02-01T11:38:37;47803.56;;;-141.97;45.34
7018;BME280;3549;42.162;24.726;2023-02-01T11:43:37;47772.78;;;-141.97;45.12
7018;BME280;3549;42.162;24.726;2023-02-01T11:46:03;47734.34;;;-141.97;44.41
7018;BME280;3549;42.162;24.726;2023-02-01T11:48:41;47792.03;;;-141.97;44.63
7018;BME280;3549;42.162;24.726;2023-02-01T11:51:25;47813.16;;;-141.97;44.67
7018;BME280;3549;42.162;24.726;2023-02-01T12:00:06;47861.22;;;-141.97;45.13
7018;BME280;3549;42.162;24.726;2023-02-01T12:02:53;47755.50;;;-141.97;45.37
7018;BME280;3549;42.162;24.726;2023-02-01T12:05:47;47782.41;;;-141.97;45.19
7018;BME280;3549;42.162;24.726;2023-02-01T12:19:17;47728.59;;;-141.97;44.21
7018;BME280;3549;42.162;24.726;2023-02-01T12:33:33;47799.72;;;-141.97;44.48
7018;BME280;3549;42.162;24.726;2023-02-01T12:44:10;47803.56;;;-141.97;44.12
7018;BME280;3549;42.162;24.726;2023-02-01T12:46:47;47795.88;;;-141.97;43.98
7018;BME280;3549;42.162;24.726;2023-02-01T12:49:41;47661.31;;;-141.97;44.23
7018;BME280;3549;42.162;24.726;2023-02-01T12:52:30;47792.03;;;-141.97;44.34
7018;BME280;3549;42.162;24.726;2023-02-01T12:58:23;47830.47;;;-141.97;44.30
7018;BME280;3549;42.162;24.726;2023-02-01T13:03:34;47799.72;;;-141.97;44.79
7018;BME280;3549;42.162;24.726;2023-02-01T13:06:17;47770.88;;;-141.97;44.66
7018;BME280;3549;42.162;24.726;2023-02-01T13:08:48;47899.66;;;-141.97;44.63
7018;BME280;3549;42.162;24.726;2023-02-01T13:11:22;47740.13;;;-141.97;44.97
7018;BME280;3549;42.162;24.726;2023-02-01T13:16:37;47784.34;;;-141.97;44.82
7018;BME280;3549;42.162;24.726;2023-02-01T13:22:03;47880.44;;;-141.97;44.38
7018;BME280;3549;42.162;24.726;2023-02-01T13:24:45;47782.41;;;-141.97;44.41
7018;BME280;3549;42.162;24.726;2023-02-01T13:27:14;47788.19;;;-141.97;43.95
7018;BME280;3549;42.162;24.726;2023-02-01T13:29:59;47793.94;;;-141.97;43.45
7018;BME280;3549;42.162;24.726;2023-02-01T13:35:18;47793.94;;;-141.97;43.76
7018;BME280;3549;42.162;24.726;2023-02-01T13:44:04;47761.25;;;-141.97;42.62
7018;BME280;3549;42.162;24.726;2023-02-01T13:46:39;47772.78;;;-141.97;42.78
7018;BME280;3549;42.162;24.726;2023-02-01T13:49:06;47795.88;;;-141.97;43.15
7018;BME280;3549;42.162;24.726;2023-02-01T13:51:44;47768.94;;;-141.97;42.80
7018;BME280;3549;42.162;24.726;2023-02-01T13:54:46;47790.09;;;-141.97;42.51
7018;BME280;3549;42.162;24.726;2023-02-01T14:00:06;47815.09;;;-141.97;42.40
7018;BME280;3549;42.162;24.726;2023-02-01T14:10:58;47788.19;;;-141.97;41.24
7018;BME280;3549;42.162;24.726;2023-02-01T14:13:38;47793.94;;;-141.97;41.94
7018;BME280;3549;42.162;24.726;2023-02-01T14:16:15;47732.44;;;-141.97;42.48
7018;BME280;3549;42.162;24.726;2023-02-01T14:23:45;47726.66;;;-141.97;42.81
7018;BME280;3549;42.162;24.726;2023-02-01T14:26:14;47795.88;;;-141.97;43.34
7018;BME280;3549;42.162;24.726;2023-02-01T14:28:49;47759.34;;;-141.97;43.14
7018;BME280;3549;42.162;24.726;2023-02-01T14:32:06;47688.22;;;-141.97;43.60
7018;BME280;3549;42.162;24.726;2023-02-01T14:34:59;47767.03;;;-141.97;43.47
7018;BME280;3549;42.162;24.726;2023-02-01T14:37:31;47788.19;;;-141.97;43.82
7018;BME280;3549;42.162;24.726;2023-02-01T14:47:43;47738.19;;;-141.97;44.10
7018;BME280;3549;42.162;24.726;2023-02-01T14:58:02;47797.78;;;-141.97;44.85
7018;BME280;3549;42.162;24.726;2023-02-01T15:00:30;47749.72;;;-141.97;45.14
7018;BME280;3549;42.162;24.726;2023-02-01T15:03:31;47815.09;;;-141.97;45.15
7018;BME280;3549;42.162;24.726;2023-02-01T15:05:59;47878.53;;;-141.97;45.04
7018;BME280;3549;42.162;24.726;2023-02-01T15:08:33;47784.34;;;-141.97;44.85